Metar z pełnej godziny Komunikat METAR ze strony awiacja.imgw.pl Metar G00 EPSY METAR EPSY 271400Z 29005KT 250V330 9999 OVC011 01/01 Q0994=